Time;durP1;ratioP1;P1;durP2;ratioP2;P2;SDS_P1;SDS_P2;PMS_P1;PMS_P2;Temp;Humidity;BMP_temperature;BMP_pressure;BME280_temperature;BME280_humidity;BME280_pressure;Samples;Min_cycle;Max_cycle;Signal;HPM_P1;HPM_P2
2022/04/11 00:02:07;;;;;;;5.60;3.00;;;;;;;7.15;100.00;99635.20;1749846;82;20913;-44
2022/04/11 00:04:34;;;;;;;3.90;3.22;;;;;;;7.15;100.00;99649.36;1750008;82;21440;-44
2022/04/11 00:07:03;;;;;;;3.33;3.02;;;;;;;7.15;100.00;99662.23;1749970;82;20940;-44
2022/04/11 00:09:30;;;;;;;11.45;3.42;;;;;;;7.14;100.00;99668.26;1749827;82;21461;-45
2022/04/11 00:11:56;;;;;;;3.75;3.12;;;;;;;7.12;100.00;99651.99;1750092;82;21459;-44
2022/04/11 00:14:25;;;;;;;3.22;3.02;;;;;;;7.09;100.00;99636.61;1749991;81;21447;-44
2022/04/11 00:16:53;;;;;;;3.65;2.70;;;;;;;7.06;100.00;99641.36;1750046;82;21038;-44
2022/04/11 00:19:21;;;;;;;4.30;2.90;;;;;;;7.04;100.00;99647.80;1750059;82;20925;-44
2022/04/11 00:21:49;;;;;;;3.90;2.62;;;;;;;6.98;100.00;99638.08;1750027;82;20940;-44
2022/04/11 00:24:16;;;;;;;3.25;2.45;;;;;;;6.94;100.00;99628.26;1749930;82;21142;-44
2022/04/11 00:26:44;;;;;;;8.40;2.95;;;;;;;6.91;100.00;99627.02;1749900;82;20920;-44
2022/04/11 00:29:11;;;;;;;4.50;3.08;;;;;;;6.82;100.00;99616.44;1749923;82;20966;-44
2022/04/11 00:31:38;;;;;;;2.55;2.35;;;;;;;6.80;100.00;99622.48;1749952;82;21011;-44
2022/04/11 00:34:06;;;;;;;6.67;2.58;;;;;;;6.74;100.00;99624.73;1750148;82;20884;-44
2022/04/11 00:36:33;;;;;;;3.15;2.72;;;;;;;6.69;100.00;99626.50;1750079;82;21151;-44
2022/04/11 00:39:01;;;;;;;2.20;2.00;;;;;;;6.70;100.00;99619.23;1749954;82;20830;-44
2022/04/11 00:41:29;;;;;;;2.35;2.15;;;;;;;6.64;100.00;99602.16;1749915;82;20973;-44
2022/04/11 00:43:55;;;;;;;2.40;2.25;;;;;;;6.61;100.00;99614.62;1749926;82;21426;-44
2022/04/11 00:46:22;;;;;;;4.12;2.27;;;;;;;6.58;100.00;99610.81;1750009;81;21090;-44
2022/04/11 00:48:48;;;;;;;2.33;2.10;;;;;;;6.58;100.00;99618.98;1750004;82;21043;-44
2022/04/11 00:51:23;;;;;;;2.42;2.22;;;;;;;6.54;100.00;99598.88;1749915;82;21418;-44
2022/04/11 00:53:51;;;;;;;4.75;2.60;;;;;;;6.54;100.00;99616.88;1749718;82;20971;-44
2022/04/11 00:56:18;;;;;;;5.50;2.90;;;;;;;6.51;100.00;99613.49;1749992;82;21596;-45
2022/04/11 00:58:47;;;;;;;4.50;4.08;;;;;;;6.51;100.00;99604.08;1749973;82;20941;-44
2022/04/11 01:01:15;;;;;;;4.20;3.42;;;;;;;6.50;100.00;99591.23;1750012;82;22029;-44
2022/04/11 01:03:43;;;;;;;5.17;4.12;;;;;;;6.49;100.00;99598.11;1749950;82;21039;-44
2022/04/11 01:06:10;;;;;;;7.15;4.30;;;;;;;6.49;100.00;99598.11;1750026;82;20964;-44
2022/04/11 01:08:38;;;;;;;8.40;5.78;;;;;;;6.49;100.00;99604.95;1749836;82;21026;-44
2022/04/11 01:11:07;;;;;;;9.10;5.92;;;;;;;6.47;100.00;99607.12;1750023;82;21003;-44
2022/04/11 01:13:33;;;;;;;7.08;6.10;;;;;;;6.46;100.00;99623.88;1750040;82;21143;-44
2022/04/11 01:16:05;;;;;;;7.55;6.75;;;;;;;6.50;100.00;99631.95;1749943;82;20964;-44
2022/04/11 01:18:34;;;;;;;8.05;6.50;;;;;;;6.51;100.00;99643.06;1739432;82;20929;-44
2022/04/11 01:21:03;;;;;;;9.28;6.25;;;;;;;6.49;100.00;99638.38;1749724;81;21394;-44
2022/04/11 01:23:31;;;;;;;10.80;7.47;;;;;;;6.49;100.00;99647.38;1722842;82;20921;-44
2022/04/11 01:25:58;;;;;;;11.63;7.65;;;;;;;6.44;100.00;99645.73;1749899;82;21196;-44
2022/04/11 01:28:25;;;;;;;10.60;8.90;;;;;;;6.44;100.00;99650.02;1749845;82;20976;-44
2022/04/11 01:30:53;;;;;;;10.93;7.95;;;;;;;6.42;100.00;99656.48;1738510;82;21504;-44
2022/04/11 01:33:25;;;;;;;9.30;6.53;;;;;;;6.41;100.00;99679.20;1735873;82;20870;-44
2022/04/11 01:35:52;;;;;;;12.35;6.03;;;;;;;6.38;100.00;99677.96;1736018;82;20929;-44
2022/04/11 01:38:19;;;;;;;7.10;5.22;;;;;;;6.37;100.00;99674.98;1735928;82;21094;-45
2022/04/11 01:40:53;;;;;;;5.50;3.77;;;;;;;6.38;100.00;99671.95;1735814;82;20936;-44
2022/04/11 01:43:20;;;;;;;5.72;4.15;;;;;;;6.38;100.00;99669.39;1735745;82;20980;-44
2022/04/11 01:45:48;;;;;;;6.85;3.30;;;;;;;6.37;100.00;99680.54;1735823;82;20980;-44
2022/04/11 01:48:16;;;;;;;5.20;3.00;;;;;;;6.33;100.00;99682.33;1735894;82;20992;-44
2022/04/11 01:50:44;;;;;;;5.90;2.52;;;;;;;6.28;100.00;99681.09;1735886;82;21144;-44
2022/04/11 01:53:13;;;;;;;4.67;2.22;;;;;;;6.27;100.00;99685.81;1735758;82;20980;-44
2022/04/11 01:55:41;;;;;;;2.45;2.25;;;;;;;6.21;100.00;99685.91;1735751;82;20984;-44
2022/04/11 01:58:09;;;;;;;4.00;2.08;;;;;;;6.18;100.00;99689.77;1735923;82;20961;-44
2022/04/11 02:00:36;;;;;;;4.45;2.12;;;;;;;6.10;100.00;99692.88;1735894;82;20929;-44
2022/04/11 02:03:04;;;;;;;2.58;1.98;;;;;;;6.00;100.00;99691.69;1714928;82;21266;-44
2022/04/11 02:05:31;;;;;;;4.22;2.47;;;;;;;5.97;100.00;99695.58;1735850;82;20894;-44
2022/04/11 02:07:58;;;;;;;4.92;2.35;;;;;;;5.93;100.00;99693.88;1735861;82;20964;-44
2022/04/11 02:10:26;;;;;;;4.90;2.58;;;;;;;5.87;100.00;99690.11;1735974;82;20961;-44
2022/04/11 02:12:54;;;;;;;4.08;2.30;;;;;;;5.81;100.00;99699.17;1736145;82;20929;-44
2022/04/11 02:15:21;;;;;;;3.92;1.65;;;;;;;5.78;100.00;99700.05;1735892;82;21139;-44
2022/04/11 02:17:49;;;;;;;2.55;2.20;;;;;;;5.72;100.00;99699.70;1735792;82;20849;-45
2022/04/11 02:20:18;;;;;;;3.45;1.75;;;;;;;5.69;100.00;99702.30;1736098;82;21092;-44
2022/04/11 02:22:52;;;;;;;1.95;1.85;;;;;;;5.65;100.00;99704.91;1736061;82;20997;-44
2022/04/11 02:25:25;;;;;;;2.27;2.02;;;;;;;5.59;100.00;99705.39;1736140;82;21681;-44
2022/04/11 02:28:01;;;;;;;4.35;1.70;;;;;;;5.51;100.00;99715.31;1735870;82;20988;-45
2022/04/11 02:30:25;;;;;;;1.60;1.50;;;;;;;5.42;100.00;99722.21;1735307;82;20878;-45
2022/04/11 02:32:53;;;;;;;1.85;1.65;;;;;;;5.37;100.00;99718.01;1735909;82;20965;-45
2022/04/11 02:35:20;;;;;;;2.17;1.50;;;;;;;5.29;100.00;99721.92;1735774;81;20945;-44
2022/04/11 02:37:47;;;;;;;1.50;1.30;;;;;;;5.25;100.00;99714.66;1735811;82;20936;-44
2022/04/11 02:40:14;;;;;;;2.45;1.30;;;;;;;5.20;100.00;99729.25;1735957;82;21102;-44
2022/04/11 02:42:45;;;;;;;2.27;1.70;;;;;;;5.17;100.00;99737.81;1735516;82;21464;-44
2022/04/11 02:45:14;;;;;;;1.42;1.27;;;;;;;5.16;100.00;99736.56;1736048;81;20917;-44
2022/04/11 02:47:41;;;;;;;1.70;1.27;;;;;;;5.13;100.00;99736.14;1735850;82;21012;-44
2022/04/11 02:50:10;;;;;;;1.60;1.45;;;;;;;5.11;100.00;99740.44;1735851;82;20913;-44
2022/04/11 02:52:38;;;;;;;1.25;1.15;;;;;;;5.09;100.00;99743.45;1734811;82;21349;-44
2022/04/11 02:55:07;;;;;;;1.77;1.20;;;;;;;5.06;100.00;99745.20;1735789;82;21471;-44
2022/04/11 02:57:36;;;;;;;1.67;1.50;;;;;;;5.04;100.00;99737.05;1735964;82;21428;-44
2022/04/11 03:00:11;;;;;;;1.20;1.10;;;;;;;5.01;100.00;99742.21;1735849;81;21425;-44
2022/04/11 03:02:38;;;;;;;1.90;1.07;;;;;;;4.98;100.00;99743.52;1736317;82;20972;-44
2022/04/11 03:05:07;;;;;;;1.62;1.52;;;;;;;5.00;100.00;99737.95;1715368;82;21149;-44
2022/04/11 03:07:36;;;;;;;2.47;2.27;;;;;;;4.97;100.00;99751.24;1714770;82;20949;-44
2022/04/11 03:10:04;;;;;;;2.00;1.40;;;;;;;4.95;100.00;99763.23;1735815;82;20992;-44
2022/04/11 03:12:33;;;;;;;2.02;1.92;;;;;;;4.93;100.00;99753.41;1735883;82;20992;-44
2022/04/11 03:15:01;;;;;;;2.25;2.10;;;;;;;4.94;100.00;99747.42;1735906;82;20846;-44
2022/04/11 03:17:29;;;;;;;2.77;2.52;;;;;;;4.91;100.00;99753.82;1736050;82;21153;-44
2022/04/11 03:19:56;;;;;;;3.85;3.08;;;;;;;4.91;100.00;99760.23;1735828;82;20913;-44
2022/04/11 03:22:24;;;;;;;2.12;2.00;;;;;;;4.87;100.00;99768.40;1735827;82;20893;-44
2022/04/11 03:24:53;;;;;;;2.20;2.00;;;;;;;4.83;100.00;99761.14;1735901;81;20933;-44
2022/04/11 03:27:20;;;;;;;2.02;1.92;;;;;;;4.82;100.00;99768.41;1735930;82;20913;-44
2022/04/11 03:29:46;;;;;;;2.50;1.80;;;;;;;4.82;100.00;99783.80;1737006;81;21106;-44
2022/04/11 03:32:13;;;;;;;3.92;2.90;;;;;;;4.82;100.00;99792.78;1749794;82;20983;-44
2022/04/11 03:34:41;;;;;;;3.55;2.60;;;;;;;4.81;100.00;99793.64;1749895;82;20971;-44
2022/04/11 03:37:08;;;;;;;3.12;2.83;;;;;;;4.78;100.00;99800.48;1749977;82;20940;-44
2022/04/11 03:39:37;;;;;;;2.02;1.85;;;;;;;4.73;100.00;99801.36;1749764;82;21485;-44
2022/04/11 03:42:05;;;;;;;2.25;2.08;;;;;;;4.72;100.00;99805.23;1749914;82;21466;-44
2022/04/11 03:46:14;;;;;;;2.70;2.37;;;;;;;4.74;100.00;99809.92;1798334;79;22647;-43
2022/04/11 03:48:41;;;;;;;1.92;1.80;;;;;;;4.70;100.00;99812.09;1758161;81;21391;-44
2022/04/11 03:51:08;;;;;;;3.35;2.47;;;;;;;4.71;100.00;99813.34;1758110;81;21474;-45
2022/04/11 03:53:35;;;;;;;4.72;2.85;;;;;;;4.75;100.00;99828.30;1758037;81;21022;-43
2022/04/11 03:56:02;;;;;;;2.47;2.27;;;;;;;4.68;100.00;99830.03;1758100;81;20932;-43
2022/04/11 03:58:31;;;;;;;4.42;3.37;;;;;;;4.65;100.00;99844.56;1758089;81;21561;-43
2022/04/11 04:00:59;;;;;;;3.17;2.87;;;;;;;4.63;100.00;99838.17;1758243;81;20979;-43
2022/04/11 04:03:29;;;;;;;3.10;2.80;;;;;;;4.58;100.00;99846.31;1724840;83;21541;-44
2022/04/11 04:06:00;;;;;;;3.15;2.95;;;;;;;4.54;100.00;99847.16;1723486;83;20900;-43
2022/04/11 04:08:29;;;;;;;3.75;3.45;;;;;;;4.51;100.00;99854.86;1721637;83;20924;-43
2022/04/11 04:11:00;;;;;;;5.22;3.08;;;;;;;4.41;100.00;99855.31;1698393;84;21593;-44
2022/04/11 04:13:27;;;;;;;2.85;2.65;;;;;;;4.41;100.00;99855.31;1671191;84;21623;-44
2022/04/11 04:15:55;;;;;;;2.77;2.58;;;;;;;4.41;100.00;99856.59;1698583;84;20916;-43
2022/04/11 04:18:24;;;;;;;2.80;2.65;;;;;;;4.38;100.00;99857.48;1698474;84;21003;-43
2022/04/11 04:20:51;;;;;;;3.85;3.33;;;;;;;4.38;100.00;99857.48;1698560;84;21008;-44
2022/04/11 04:23:18;;;;;;;3.58;2.67;;;;;;;4.34;100.00;99853.63;1716493;83;20975;-43
2022/04/11 04:25:45;;;;;;;4.08;2.27;;;;;;;4.30;100.00;99853.64;1709072;83;21499;-43
2022/04/11 04:28:14;;;;;;;3.25;2.65;;;;;;;4.28;100.00;99858.34;1709117;84;21137;-44
2022/04/11 04:30:41;;;;;;;6.33;2.33;;;;;;;4.29;100.00;99851.07;1709058;84;20940;-44
2022/04/11 04:33:07;;;;;;;3.02;2.52;;;;;;;4.27;100.00;99866.47;1709037;84;20963;-44
2022/04/11 04:35:34;;;;;;;3.10;2.30;;;;;;;4.28;100.00;99870.73;1709102;84;20927;-44
2022/04/11 04:38:03;;;;;;;3.10;2.80;;;;;;;4.29;100.00;99873.72;1709323;84;20940;-44
2022/04/11 04:40:32;;;;;;;4.15;3.83;;;;;;;4.31;100.00;99879.70;1709055;83;21749;-44
2022/04/11 04:42:59;;;;;;;3.20;2.98;;;;;;;4.31;100.00;99880.98;1709242;84;20924;-44
2022/04/11 04:45:26;;;;;;;6.28;3.92;;;;;;;4.26;100.00;99872.45;1701890;84;21023;-44
2022/04/11 04:48:03;;;;;;;2.90;2.70;;;;;;;4.27;100.00;99880.56;1695429;84;21475;-44
2022/04/11 04:50:30;;;;;;;2.77;2.62;;;;;;;4.22;100.00;99864.77;1696345;84;20956;-44
2022/04/11 04:52:57;;;;;;;2.60;2.40;;;;;;;4.22;100.00;99864.77;1666457;84;21899;-44
2022/04/11 04:55:25;;;;;;;2.80;2.58;;;;;;;4.20;100.00;99871.19;1696523;84;21542;-44
2022/04/11 04:57:53;;;;;;;2.55;2.35;;;;;;;4.14;100.00;99872.45;1695988;84;21335;-44
2022/04/11 05:00:20;;;;;;;3.10;2.80;;;;;;;4.14;100.00;99872.45;1695884;84;21024;-44
2022/04/11 05:02:47;;;;;;;1.57;1.47;;;;;;;4.14;100.00;99877.16;1696240;84;21008;-44
2022/04/11 05:05:16;;;;;;;3.98;2.20;;;;;;;4.15;100.00;99890.81;1695981;84;21269;-45
2022/04/11 05:07:44;;;;;;;4.03;2.42;;;;;;;4.15;100.00;99890.81;1695674;84;20968;-44
2022/04/11 05:10:11;;;;;;;4.00;1.70;;;;;;;4.14;100.00;99871.17;1695966;84;20964;-44
2022/04/11 05:12:44;;;;;;;1.72;1.62;;;;;;;4.14;100.00;99871.17;1696048;84;21078;-44
2022/04/11 05:15:12;;;;;;;2.85;2.00;;;;;;;4.15;100.00;99861.34;1695987;84;20996;-42
2022/04/11 05:17:42;;;;;;;2.35;1.50;;;;;;;4.19;100.00;99875.89;1696072;84;21257;-43
2022/04/11 05:20:10;;;;;;;1.40;1.20;;;;;;;4.21;100.00;99876.73;1695889;84;21011;-43
2022/04/11 05:22:38;;;;;;;2.47;1.05;;;;;;;4.22;100.00;99872.03;1695744;84;20968;-44
2022/04/11 05:25:05;;;;;;;4.42;1.07;;;;;;;4.22;100.00;99855.80;1695913;84;20964;-45
2022/04/11 05:27:34;;;;;;;1.62;1.20;;;;;;;4.24;100.00;99867.76;1696031;84;21013;-44
2022/04/11 05:30:01;;;;;;;1.10;0.93;;;;;;;4.26;100.00;99863.89;1695978;84;21748;-43
2022/04/11 05:32:30;;;;;;;2.17;1.17;;;;;;;4.27;100.00;99866.47;1695859;84;20976;-43
2022/04/11 05:34:57;;;;;;;2.33;1.35;;;;;;;4.31;100.00;99869.45;1696008;83;21023;-43
2022/04/11 05:37:24;;;;;;;2.15;0.90;;;;;;;4.36;100.00;99878.83;1695907;84;20972;-43
2022/04/11 05:39:51;;;;;;;1.40;0.78;;;;;;;4.37;100.00;99883.96;1695847;83;20956;-44
2022/04/11 05:42:20;;;;;;;0.70;0.70;;;;;;;4.41;100.00;99893.76;1696207;84;21161;-44
2022/04/11 05:44:48;;;;;;;1.25;1.10;;;;;;;4.51;100.00;99903.56;1695818;83;21047;-44
2022/04/11 05:47:15;;;;;;;2.05;0.70;;;;;;;4.51;100.00;99903.56;1696021;84;20968;-44
2022/04/11 05:49:44;;;;;;;1.10;0.80;;;;;;;4.50;100.00;99903.14;1695339;84;21024;-44
2022/04/11 05:52:16;;;;;;;1.90;0.70;;;;;;;4.46;100.00;99900.59;1695958;83;21549;-44
2022/04/11 05:54:42;;;;;;;1.00;0.75;;;;;;;4.47;100.00;99900.18;1695871;84;21159;-44
2022/04/11 05:57:10;;;;;;;1.00;0.65;;;;;;;4.47;100.00;99898.89;1695931;83;21494;-44
2022/04/11 05:59:36;;;;;;;0.70;0.70;;;;;;;4.51;100.00;99890.75;1695972;84;20979;-44
2022/04/11 06:02:05;;;;;;;1.75;1.00;;;;;;;4.54;99.31;99900.58;1695783;84;20975;-44
2022/04/11 06:04:33;;;;;;;3.58;0.80;;;;;;;4.50;99.02;99911.70;1644857;84;21020;-44
2022/04/11 06:07:00;;;;;;;2.42;0.80;;;;;;;4.47;98.87;99906.59;1644460;84;21268;-44
2022/04/11 06:09:28;;;;;;;2.08;0.90;;;;;;;4.50;99.19;99901.45;1666646;84;21063;-44
2022/04/11 06:11:55;;;;;;;2.98;0.95;;;;;;;4.47;99.03;99900.18;1695959;84;20980;-44
2022/04/11 06:14:23;;;;;;;0.98;0.98;;;;;;;4.47;98.51;99898.89;1696249;84;20932;-44
2022/04/11 06:16:50;;;;;;;3.30;0.80;;;;;;;4.44;98.60;99901.47;1695969;84;20976;-44
2022/04/11 06:19:17;;;;;;;1.25;1.10;;;;;;;4.48;98.59;99908.29;1695901;83;21955;-44
2022/04/11 06:21:45;;;;;;;1.70;1.07;;;;;;;4.53;98.36;99906.56;1695862;84;21225;-44
2022/04/11 06:24:12;;;;;;;0.70;0.70;;;;;;;4.51;98.00;99901.87;1695853;84;20956;-44
2022/04/11 06:26:39;;;;;;;1.80;1.00;;;;;;;4.55;98.01;99910.42;1695757;84;21598;-44
2022/04/11 06:29:06;;;;;;;2.83;0.90;;;;;;;4.59;97.64;99903.98;1695812;83;21563;-44
2022/04/11 06:31:33;;;;;;;1.27;0.70;;;;;;;4.65;97.11;99916.34;1695766;84;22208;-44
2022/04/11 06:34:03;;;;;;;0.55;0.55;;;;;;;4.66;96.53;99903.54;1695471;84;21019;-44
2022/04/11 06:36:32;;;;;;;1.52;0.98;;;;;;;4.69;96.87;99910.38;1666572;84;21459;-44
2022/04/11 06:38:58;;;;;;;2.85;1.25;;;;;;;4.73;96.53;99919.77;1695872;84;21012;-44
2022/04/11 06:41:25;;;;;;;2.42;1.00;;;;;;;4.73;96.49;99908.23;1695845;83;20949;-44
2022/04/11 06:43:53;;;;;;;0.80;0.80;;;;;;;4.75;96.49;99918.88;1695932;84;20917;-44
2022/04/11 06:46:22;;;;;;;1.10;0.72;;;;;;;4.83;96.49;99921.88;1696262;83;20996;-44
2022/04/11 06:48:49;;;;;;;0.72;0.70;;;;;;;4.87;95.70;99926.13;1711278;83;21548;-44
2022/04/11 06:51:16;;;;;;;1.20;1.00;;;;;;;4.87;95.02;99932.55;1701623;84;21470;-44
2022/04/11 06:53:43;;;;;;;1.42;1.32;;;;;;;4.82;93.70;99929.98;1711054;83;20971;-44
2022/04/11 06:56:09;;;;;;;2.30;1.12;;;;;;;4.82;93.65;99953.52;1701451;84;21127;-44
2022/04/11 06:58:36;;;;;;;1.22;1.10;;;;;;;4.81;93.93;99945.39;1711065;83;20975;-44
2022/04/11 07:01:03;;;;;;;0.75;0.72;;;;;;;4.82;93.90;99933.83;1682481;85;20963;-44
2022/04/11 07:03:31;;;;;;;3.05;0.82;;;;;;;4.86;94.06;99934.69;1701378;84;21015;-44
2022/04/11 07:05:58;;;;;;;1.50;1.12;;;;;;;4.88;94.75;99932.52;1710954;83;20995;-44
2022/04/11 07:08:26;;;;;;;0.93;0.93;;;;;;;4.90;94.44;99935.09;1701369;84;21237;-44
2022/04/11 07:10:53;;;;;;;1.15;1.07;;;;;;;4.92;94.49;99942.77;1711007;83;20889;-44
2022/04/11 07:13:20;;;;;;;1.05;0.93;;;;;;;4.89;93.51;99945.77;1701524;84;20947;-44
2022/04/11 07:15:47;;;;;;;1.62;0.80;;;;;;;4.86;93.78;99946.23;1685369;85;21047;-44
2022/04/11 07:18:14;;;;;;;1.95;0.90;;;;;;;4.89;93.23;99961.61;1711142;83;20908;-44
2022/04/11 07:20:41;;;;;;;1.42;1.32;;;;;;;4.92;93.24;99971.85;1701301;84;21052;-44
2022/04/11 07:23:07;;;;;;;2.05;1.80;;;;;;;4.93;93.49;99968.88;1711087;83;21064;-44
2022/04/11 07:25:35;;;;;;;1.37;1.27;;;;;;;4.99;93.68;99973.98;1682333;85;20924;-44
2022/04/11 07:28:05;;;;;;;2.10;2.00;;;;;;;4.99;93.66;99970.97;1701269;84;20889;-44
2022/04/11 07:30:32;;;;;;;2.70;1.95;;;;;;;5.03;93.17;99986.77;1710876;83;20964;-44
2022/04/11 07:33:00;;;;;;;1.90;1.80;;;;;;;5.02;92.96;99979.93;1701365;84;21336;-44
2022/04/11 07:35:27;;;;;;;2.47;1.50;;;;;;;5.08;92.85;99970.53;1710812;82;21038;-44
2022/04/11 07:37:53;;;;;;;1.95;1.40;;;;;;;5.00;92.04;99974.41;1701346;84;20952;-44
2022/04/11 07:40:20;;;;;;;1.25;1.15;;;;;;;5.01;92.08;99979.51;1711096;83;20998;-44
2022/04/11 07:42:47;;;;;;;0.85;0.85;;;;;;;5.06;91.80;100001.31;1682688;85;20900;-44
2022/04/11 07:45:13;;;;;;;2.58;1.00;;;;;;;5.09;91.26;100000.02;1700880;83;21270;-44
2022/04/11 07:47:40;;;;;;;0.72;0.70;;;;;;;5.10;90.68;100001.72;1695811;84;21011;-44
2022/04/11 07:50:08;;;;;;;1.65;1.10;;;;;;;5.09;90.73;100000.02;1695872;84;20961;-44
2022/04/11 07:52:40;;;;;;;1.40;1.30;;;;;;;5.16;90.62;100029.08;1695782;84;21020;-44
2022/04/11 07:55:08;;;;;;;1.60;1.50;;;;;;;5.18;90.25;100032.50;1695448;84;21039;-42
2022/04/11 07:57:35;;;;;;;1.82;1.60;;;;;;;5.12;90.12;100028.23;1695913;84;21817;-43
2022/04/11 08:00:03;;;;;;;1.45;1.20;;;;;;;5.08;90.48;100021.41;1695722;84;20901;-42
2022/04/11 08:02:31;;;;;;;1.40;1.30;;;;;;;5.02;90.52;100012.45;1694300;84;20956;-44
2022/04/11 08:05:01;;;;;;;1.47;1.37;;;;;;;4.95;90.37;100006.91;1695910;83;21016;-43
2022/04/11 08:07:29;;;;;;;1.90;1.80;;;;;;;4.96;91.11;100010.74;1695789;84;20972;-43
2022/04/11 08:09:56;;;;;;;1.50;1.50;;;;;;;4.98;90.80;100029.99;1696005;84;21264;-43
2022/04/11 08:12:24;;;;;;;3.62;2.10;;;;;;;4.98;90.85;100038.52;1695840;84;21435;-44
2022/04/11 08:14:50;;;;;;;1.85;1.70;;;;;;;5.00;90.95;100041.94;1695802;84;20933;-44
2022/04/11 08:17:18;;;;;;;1.47;1.37;;;;;;;5.00;91.28;100040.66;1695836;84;21020;-44
2022/04/11 08:19:45;;;;;;;1.57;1.55;;;;;;;5.02;90.85;100038.10;1695930;83;20952;-44
2022/04/11 08:22:13;;;;;;;2.22;1.17;;;;;;;5.00;90.83;100039.38;1695917;84;20968;-44
2022/04/11 08:24:39;;;;;;;0.88;0.88;;;;;;;5.00;90.86;100026.99;1695815;84;21000;-44
2022/04/11 08:27:06;;;;;;;1.95;0.80;;;;;;;5.08;90.16;100031.66;1696023;84;21447;-44
2022/04/11 08:29:34;;;;;;;1.32;1.07;;;;;;;5.14;88.94;100029.52;1695743;84;20987;-44
2022/04/11 08:32:02;;;;;;;2.22;1.02;;;;;;;5.11;88.75;100026.52;1695907;84;20912;-44
2022/04/11 08:34:29;;;;;;;1.87;1.77;;;;;;;5.12;89.53;100023.09;1695999;84;21836;-43
2022/04/11 08:36:56;;;;;;;1.42;1.32;;;;;;;5.16;89.35;100025.23;1696051;84;20964;-44
2022/04/11 08:39:22;;;;;;;1.40;1.40;;;;;;;5.20;89.32;100040.20;1695922;83;20949;-44
2022/04/11 08:41:51;;;;;;;1.75;1.65;;;;;;;5.22;88.00;100034.64;1696001;84;21020;-44
2022/04/11 08:44:18;;;;;;;1.80;1.70;;;;;;;5.16;88.50;100027.36;1696064;84;21036;-44
2022/04/11 08:46:46;;;;;;;1.40;1.30;;;;;;;5.19;89.04;100027.79;1666264;84;21048;-44
2022/04/11 08:49:13;;;;;;;1.55;1.47;;;;;;;5.21;89.05;100029.08;1696000;84;21019;-44
2022/04/11 08:51:39;;;;;;;1.45;1.45;;;;;;;5.27;89.64;100027.33;1696201;84;21637;-44
2022/04/11 08:54:07;;;;;;;1.92;1.82;;;;;;;5.34;87.80;100033.30;1695882;84;21442;-44
2022/04/11 08:56:34;;;;;;;1.90;1.77;;;;;;;5.31;87.90;100038.45;1695986;84;21000;-45
2022/04/11 08:59:02;;;;;;;1.80;1.62;;;;;;;5.36;87.52;100046.98;1695848;84;22268;-44
2022/04/11 09:01:29;;;;;;;2.20;2.10;;;;;;;5.41;87.99;100040.11;1695837;84;20917;-44
2022/04/11 09:03:55;;;;;;;1.50;1.40;;;;;;;5.49;86.70;100038.80;1696055;84;20982;-44
2022/04/11 09:06:23;;;;;;;1.45;1.35;;;;;;;5.54;86.88;100047.78;1695997;84;20920;-44
2022/04/11 09:08:53;;;;;;;2.10;2.00;;;;;;;5.60;86.65;100048.61;1696094;84;20999;-44
2022/04/11 09:11:36;;;;;;;2.25;2.15;;;;;;;5.69;86.45;100040.02;1695833;83;21915;-44
2022/04/11 09:14:05;;;;;;;3.75;1.37;;;;;;;5.72;84.86;100028.85;1695786;84;21000;-43
2022/04/11 09:16:51;;;;;;;1.00;1.00;;;;;;;5.57;85.02;100022.08;1695900;84;20934;-43
2022/04/11 09:19:23;;;;;;;1.92;1.82;;;;;;;5.50;85.71;100017.84;1696256;84;20936;-43
2022/04/11 09:21:54;;;;;;;2.10;2.00;;;;;;;5.52;86.34;100019.97;1695934;84;20984;-43
2022/04/11 09:24:22;;;;;;;3.20;2.20;;;;;;;5.56;86.89;100010.97;1695956;83;21112;-44
2022/04/11 09:26:54;;;;;;;5.40;1.90;;;;;;;5.49;86.17;99999.45;1695888;84;20964;-44
2022/04/11 09:29:24;;;;;;;2.15;1.10;;;;;;;5.40;86.77;100009.33;1696021;84;20916;-44
2022/04/11 09:31:51;;;;;;;1.57;1.00;;;;;;;5.33;87.15;100005.92;1695611;83;20972;-44
2022/04/11 09:34:21;;;;;;;1.42;1.32;;;;;;;5.39;87.58;100023.86;1696004;84;20932;-44
2022/04/11 09:36:56;;;;;;;1.37;1.22;;;;;;;5.43;86.33;100043.55;1696092;84;21238;-44
2022/04/11 09:39:25;;;;;;;1.17;1.00;;;;;;;5.41;86.38;100060.64;1695878;84;21593;-44
2022/04/11 09:41:52;;;;;;;1.02;1.02;;;;;;;5.44;86.23;100051.67;1695900;83;20995;-45
2022/04/11 09:44:30;;;;;;;1.40;1.30;;;;;;;5.47;86.34;100034.10;1695892;84;20995;-44
2022/04/11 09:47:03;;;;;;;1.10;1.00;;;;;;;5.58;86.28;100031.48;1706569;83;20914;-43
2022/04/11 09:49:31;;;;;;;0.95;0.90;;;;;;;5.70;85.84;100021.17;1695177;83;21218;-44
2022/04/11 09:52:12;;;;;;;1.27;1.17;;;;;;;5.80;84.75;100007.82;1721371;83;21022;-43
2022/04/11 09:54:43;;;;;;;0.90;0.90;;;;;;;5.83;84.47;100010.81;1692516;84;20954;-43
2022/04/11 09:57:15;;;;;;;0.95;0.85;;;;;;;5.85;84.41;100009.95;1692276;84;20931;-44
2022/04/11 09:59:43;;;;;;;0.82;0.82;;;;;;;5.81;84.68;99997.12;1721545;83;21793;-45
2022/04/11 10:02:14;;;;;;;1.15;1.05;;;;;;;5.81;84.67;99997.12;1721671;83;21093;-44
2022/04/11 10:04:40;;;;;;;1.52;0.85;;;;;;;5.85;85.07;100003.95;1692431;84;20991;-43
2022/04/11 10:07:10;;;;;;;1.92;0.90;;;;;;;5.90;85.40;100007.34;1692533;84;20958;-43
2022/04/11 10:09:40;;;;;;;0.57;0.57;;;;;;;6.01;85.48;100014.59;1692586;84;20904;-44
2022/04/11 10:12:09;;;;;;;1.75;0.53;;;;;;;6.14;83.04;100022.20;1692837;84;20979;-44
2022/04/11 10:14:36;;;;;;;1.07;0.60;;;;;;;6.15;82.33;100006.78;1692654;84;21110;-44
2022/04/11 10:17:04;;;;;;;0.62;0.50;;;;;;;6.14;82.05;99996.50;1692596;84;20994;-43
2022/04/11 10:19:33;;;;;;;0.47;0.47;;;;;;;6.11;81.69;99972.12;1692651;84;20947;-43
2022/04/11 10:22:06;;;;;;;0.70;0.70;;;;;;;6.07;82.50;99944.74;1721670;83;20956;-43
2022/04/11 10:24:48;;;;;;;1.65;0.70;;;;;;;6.00;84.01;99921.64;1721740;83;21465;-43
2022/04/11 10:27:20;;;;;;;0.60;0.60;;;;;;;5.90;84.99;99908.02;1692693;84;21159;-44
2022/04/11 10:29:49;;;;;;;0.90;0.70;;;;;;;5.72;86.01;99920.56;1663132;84;20986;-43
2022/04/11 10:32:19;;;;;;;1.30;0.78;;;;;;;5.60;87.23;99934.76;1721467;83;20964;-43
2022/04/11 10:34:55;;;;;;;1.32;1.20;;;;;;;5.49;87.37;99973.78;1721659;83;21591;-43
2022/04/11 10:37:24;;;;;;;1.27;1.27;;;;;;;5.44;88.04;100005.88;1667172;84;20856;-44
2022/04/11 10:39:52;;;;;;;0.90;0.90;;;;;;;5.35;87.83;100036.73;1692779;84;21081;-43
2022/04/11 10:42:24;;;;;;;0.90;0.60;;;;;;;5.30;88.19;100035.45;1692763;84;20903;-43
2022/04/11 10:44:56;;;;;;;2.92;0.60;;;;;;;5.30;88.54;100016.20;1721618;82;21022;-44
2022/04/11 10:47:34;;;;;;;0.75;0.57;;;;;;;5.32;88.61;100013.20;1686420;84;20928;-44
2022/04/11 10:50:20;;;;;;;0.60;0.60;;;;;;;5.29;89.37;100003.78;1701293;84;20952;-44
2022/04/11 10:53:37;;;;;;;;;;;;;;;;;;;;;
2022/04/11 10:56:08;;;;;;;0.50;0.50;;;;;;;5.15;91.45;99988.44;1672196;84;21525;-43
2022/04/11 10:58:43;;;;;;;1.10;0.60;;;;;;;5.06;92.06;99960.27;1708188;84;20943;-43
2022/04/11 11:01:16;;;;;;;0.80;0.68;;;;;;;4.91;92.35;99985.54;1674197;84;21449;-43
2022/04/11 11:04:09;;;;;;;0.72;0.50;;;;;;;4.91;92.35;99985.54;1708286;84;20948;-43
2022/04/11 11:06:41;;;;;;;3.15;0.30;;;;;;;4.93;93.20;100000.49;1700089;84;21068;-43
2022/04/11 11:09:21;;;;;;;1.67;0.80;;;;;;;4.93;93.20;100000.49;1656269;85;21479;-43
2022/04/11 11:11:52;;;;;;;0.50;0.40;;;;;;;4.97;92.70;99996.22;1682907;85;21020;-44
2022/04/11 11:14:44;;;;;;;0.47;0.47;;;;;;;5.01;91.42;99999.20;1708383;84;20984;-44
2022/04/11 11:17:14;;;;;;;0.60;0.60;;;;;;;5.03;91.45;99990.62;1701140;83;20940;-44
2022/04/11 11:20:07;;;;;;;0.70;0.50;;;;;;;5.04;91.11;99967.95;1682744;85;21269;-44
2022/04/11 11:22:56;;;;;;;0.40;0.40;;;;;;;5.02;90.58;99963.25;1708052;84;20936;-43
2022/04/11 11:25:25;;;;;;;1.42;1.30;;;;;;;5.02;90.58;99963.25;1700997;84;21510;-43
2022/04/11 11:27:56;;;;;;;0.60;0.47;;;;;;;5.08;90.59;99940.58;1708349;83;20905;-43
2022/04/11 11:30:26;;;;;;;2.42;0.45;;;;;;;5.08;90.59;99940.58;1707915;84;20944;-43
2022/04/11 11:32:53;;;;;;;0.50;0.50;;;;;;;5.06;90.18;99925.63;1657690;84;22122;-45
2022/04/11 11:35:21;;;;;;;0.40;0.40;;;;;;;5.06;90.18;99925.63;1650765;84;20921;-44
2022/04/11 11:37:49;;;;;;;0.40;0.40;;;;;;;4.95;91.56;99936.38;1680398;84;20944;-44
2022/04/11 11:40:20;;;;;;;0.82;0.60;;;;;;;4.77;93.01;99965.47;1700971;84;20960;-44
2022/04/11 11:42:47;;;;;;;2.75;0.60;;;;;;;4.64;94.28;99977.45;1658485;84;20956;-44
2022/04/11 11:45:15;;;;;;;3.30;2.20;;;;;;;4.52;94.97;99998.42;1701084;84;22102;-44
2022/04/11 11:47:42;;;;;;;2.37;1.60;;;;;;;4.48;96.59;100038.15;1622461;84;20980;-44